sensor_id;sensor_type;location;lat;lon;timestamp;P1;durP1;ratioP1;P2;durP2;ratioP2
7116;SDS011;3600;48.568;7.870;2023-08-31T00:01:04;2.38;;;1.48;;
7116;SDS011;3600;48.568;7.870;2023-08-31T00:03:31;2.08;;;1.92;;
7116;SDS011;3600;48.568;7.870;2023-08-31T00:06:00;3.08;;;1.67;;
7116;SDS011;3600;48.568;7.870;2023-08-31T00:08:28;3.28;;;1.83;;
7116;SDS011;3600;48.568;7.870;2023-08-31T00:10:58;1.60;;;1.50;;
7116;SDS011;3600;48.568;7.870;2023-08-31T00:13:26;4.18;;;2.35;;
7116;SDS011;3600;48.568;7.870;2023-08-31T00:15:55;2.35;;;1.55;;
7116;SDS011;3600;48.568;7.870;2023-08-31T00:18:23;1.92;;;1.77;;
7116;SDS011;3600;48.568;7.870;2023-08-31T00:20:51;3.58;;;2.30;;
7116;SDS011;3600;48.568;7.870;2023-08-31T00:23:18;4.30;;;1.90;;
7116;SDS011;3600;48.568;7.870;2023-08-31T00:25:46;4.00;;;2.10;;
7116;SDS011;3600;48.568;7.870;2023-08-31T00:28:14;2.30;;;2.10;;
7116;SDS011;3600;48.568;7.870;2023-08-31T00:30:44;4.07;;;2.10;;
7116;SDS011;3600;48.568;7.870;2023-08-31T00:33:11;2.72;;;2.00;;
7116;SDS011;3600;48.568;7.870;2023-08-31T00:35:39;9.30;;;2.30;;
7116;SDS011;3600;48.568;7.870;2023-08-31T00:38:12;3.42;;;1.60;;
7116;SDS011;3600;48.568;7.870;2023-08-31T00:40:43;2.72;;;1.92;;
7116;SDS011;3600;48.568;7.870;2023-08-31T00:43:13;4.35;;;1.85;;
7116;SDS011;3600;48.568;7.870;2023-08-31T00:45:48;2.08;;;1.85;;
7116;SDS011;3600;48.568;7.870;2023-08-31T00:48:16;4.35;;;2.15;;
7116;SDS011;3600;48.568;7.870;2023-08-31T00:50:44;2.67;;;1.83;;
7116;SDS011;3600;48.568;7.870;2023-08-31T00:53:12;4.00;;;2.20;;
7116;SDS011;3600;48.568;7.870;2023-08-31T00:55:39;3.53;;;2.08;;
7116;SDS011;3600;48.568;7.870;2023-08-31T00:58:07;2.60;;;1.92;;
7116;SDS011;3600;48.568;7.870;2023-08-31T01:03:13;2.30;;;2.08;;
7116;SDS011;3600;48.568;7.870;2023-08-31T01:06:02;2.95;;;2.10;;
7116;SDS011;3600;48.568;7.870;2023-08-31T01:08:43;3.95;;;2.75;;
7116;SDS011;3600;48.568;7.870;2023-08-31T01:14:02;2.80;;;2.30;;
7116;SDS011;3600;48.568;7.870;2023-08-31T01:16:39;3.10;;;1.80;;
7116;SDS011;3600;48.568;7.870;2023-08-31T01:19:35;2.13;;;1.70;;
7116;SDS011;3600;48.568;7.870;2023-08-31T01:22:07;3.83;;;1.90;;
7116;SDS011;3600;48.568;7.870;2023-08-31T01:24:39;4.00;;;1.90;;
7116;SDS011;3600;48.568;7.870;2023-08-31T01:27:07;2.17;;;1.98;;
7116;SDS011;3600;48.568;7.870;2023-08-31T01:29:34;3.17;;;2.33;;
7116;SDS011;3600;48.568;7.870;2023-08-31T01:32:04;2.40;;;2.20;;
7116;SDS011;3600;48.568;7.870;2023-08-31T01:34:33;3.80;;;2.13;;
7116;SDS011;3600;48.568;7.870;2023-08-31T01:37:08;2.92;;;2.20;;
7116;SDS011;3600;48.568;7.870;2023-08-31T01:39:41;2.45;;;1.90;;
7116;SDS011;3600;48.568;7.870;2023-08-31T01:42:13;2.97;;;2.22;;
7116;SDS011;3600;48.568;7.870;2023-08-31T01:44:43;2.08;;;1.75;;
7116;SDS011;3600;48.568;7.870;2023-08-31T01:47:14;1.88;;;1.70;;
7116;SDS011;3600;48.568;7.870;2023-08-31T01:49:43;2.42;;;2.22;;
7116;SDS011;3600;48.568;7.870;2023-08-31T01:52:10;2.63;;;2.00;;
7116;SDS011;3600;48.568;7.870;2023-08-31T01:54:37;3.67;;;2.28;;
7116;SDS011;3600;48.568;7.870;2023-08-31T01:57:04;3.08;;;2.03;;
7116;SDS011;3600;48.568;7.870;2023-08-31T01:59:33;2.03;;;1.83;;
7116;SDS011;3600;48.568;7.870;2023-08-31T02:02:03;4.60;;;2.72;;
7116;SDS011;3600;48.568;7.870;2023-08-31T02:04:33;2.55;;;2.17;;
7116;SDS011;3600;48.568;7.870;2023-08-31T02:07:00;1.77;;;1.67;;
7116;SDS011;3600;48.568;7.870;2023-08-31T02:09:26;2.10;;;1.90;;
7116;SDS011;3600;48.568;7.870;2023-08-31T02:11:53;2.70;;;2.08;;
7116;SDS011;3600;48.568;7.870;2023-08-31T02:14:20;3.03;;;2.08;;
7116;SDS011;3600;48.568;7.870;2023-08-31T02:16:47;2.30;;;2.10;;
7116;SDS011;3600;48.568;7.870;2023-08-31T02:19:13;2.33;;;2.00;;
7116;SDS011;3600;48.568;7.870;2023-08-31T02:21:40;2.13;;;1.92;;
7116;SDS011;3600;48.568;7.870;2023-08-31T02:24:07;4.15;;;2.05;;
7116;SDS011;3600;48.568;7.870;2023-08-31T02:26:37;2.83;;;2.30;;
7116;SDS011;3600;48.568;7.870;2023-08-31T02:29:04;2.13;;;1.92;;
7116;SDS011;3600;48.568;7.870;2023-08-31T02:31:31;2.58;;;2.17;;
7116;SDS011;3600;48.568;7.870;2023-08-31T02:33:58;2.95;;;2.10;;
7116;SDS011;3600;48.568;7.870;2023-08-31T02:36:25;2.75;;;1.70;;
7116;SDS011;3600;48.568;7.870;2023-08-31T02:38:52;3.28;;;2.38;;
7116;SDS011;3600;48.568;7.870;2023-08-31T02:41:19;3.85;;;2.65;;
7116;SDS011;3600;48.568;7.870;2023-08-31T02:43:46;2.78;;;1.98;;
7116;SDS011;3600;48.568;7.870;2023-08-31T02:46:12;2.50;;;2.30;;
7116;SDS011;3600;48.568;7.870;2023-08-31T02:48:39;4.75;;;2.30;;
7116;SDS011;3600;48.568;7.870;2023-08-31T02:51:06;1.88;;;1.77;;
7116;SDS011;3600;48.568;7.870;2023-08-31T02:53:33;6.32;;;2.40;;
7116;SDS011;3600;48.568;7.870;2023-08-31T02:56:00;3.97;;;2.25;;
7116;SDS011;3600;48.568;7.870;2023-08-31T02:58:26;2.53;;;2.33;;
7116;SDS011;3600;48.568;7.870;2023-08-31T03:00:53;3.22;;;2.30;;
7116;SDS011;3600;48.568;7.870;2023-08-31T03:03:20;2.40;;;2.20;;
7116;SDS011;3600;48.568;7.870;2023-08-31T03:05:47;2.42;;;2.22;;
7116;SDS011;3600;48.568;7.870;2023-08-31T03:08:14;3.35;;;2.40;;
7116;SDS011;3600;48.568;7.870;2023-08-31T03:10:41;2.42;;;1.98;;
7116;SDS011;3600;48.568;7.870;2023-08-31T03:13:07;2.70;;;2.00;;
7116;SDS011;3600;48.568;7.870;2023-08-31T03:15:35;2.70;;;2.50;;
7116;SDS011;3600;48.568;7.870;2023-08-31T03:18:02;2.60;;;2.00;;
7116;SDS011;3600;48.568;7.870;2023-08-31T03:20:29;5.78;;;2.33;;
7116;SDS011;3600;48.568;7.870;2023-08-31T03:22:55;2.58;;;2.38;;
7116;SDS011;3600;48.568;7.870;2023-08-31T03:25:22;2.83;;;2.30;;
7116;SDS011;3600;48.568;7.870;2023-08-31T03:27:50;3.55;;;2.75;;
7116;SDS011;3600;48.568;7.870;2023-08-31T03:30:17;3.67;;;2.25;;
7116;SDS011;3600;48.568;7.870;2023-08-31T03:32:44;3.10;;;2.20;;
7116;SDS011;3600;48.568;7.870;2023-08-31T03:35:11;2.60;;;2.38;;
7116;SDS011;3600;48.568;7.870;2023-08-31T03:37:38;2.28;;;2.08;;
7116;SDS011;3600;48.568;7.870;2023-08-31T03:40:05;3.13;;;1.90;;
7116;SDS011;3600;48.568;7.870;2023-08-31T03:42:33;3.17;;;2.58;;
7116;SDS011;3600;48.568;7.870;2023-08-31T03:45:01;4.10;;;2.13;;
7116;SDS011;3600;48.568;7.870;2023-08-31T03:47:29;3.42;;;2.33;;
7116;SDS011;3600;48.568;7.870;2023-08-31T03:49:56;2.45;;;2.15;;
7116;SDS011;3600;48.568;7.870;2023-08-31T03:52:23;3.05;;;2.55;;
7116;SDS011;3600;48.568;7.870;2023-08-31T03:54:50;2.90;;;2.70;;
7116;SDS011;3600;48.568;7.870;2023-08-31T03:57:18;2.72;;;2.50;;
7116;SDS011;3600;48.568;7.870;2023-08-31T03:59:46;3.33;;;2.45;;
7116;SDS011;3600;48.568;7.870;2023-08-31T04:02:13;3.13;;;2.50;;
7116;SDS011;3600;48.568;7.870;2023-08-31T04:04:40;4.15;;;2.25;;
7116;SDS011;3600;48.568;7.870;2023-08-31T04:07:06;2.60;;;2.38;;
7116;SDS011;3600;48.568;7.870;2023-08-31T04:09:33;2.45;;;2.20;;
7116;SDS011;3600;48.568;7.870;2023-08-31T04:12:00;2.92;;;2.63;;
7116;SDS011;3600;48.568;7.870;2023-08-31T04:14:27;3.13;;;2.28;;
7116;SDS011;3600;48.568;7.870;2023-08-31T04:16:55;4.00;;;2.53;;
7116;SDS011;3600;48.568;7.870;2023-08-31T04:19:22;3.55;;;2.63;;
7116;SDS011;3600;48.568;7.870;2023-08-31T04:21:49;3.13;;;2.35;;
7116;SDS011;3600;48.568;7.870;2023-08-31T04:24:15;3.20;;;2.85;;
7116;SDS011;3600;48.568;7.870;2023-08-31T04:26:42;3.25;;;2.92;;
7116;SDS011;3600;48.568;7.870;2023-08-31T04:29:10;5.43;;;3.00;;
7116;SDS011;3600;48.568;7.870;2023-08-31T04:31:37;3.45;;;2.63;;
7116;SDS011;3600;48.568;7.870;2023-08-31T04:34:05;6.40;;;2.72;;
7116;SDS011;3600;48.568;7.870;2023-08-31T04:36:33;6.60;;;2.60;;
7116;SDS011;3600;48.568;7.870;2023-08-31T04:39:00;3.10;;;2.50;;
7116;SDS011;3600;48.568;7.870;2023-08-31T04:41:27;3.08;;;2.80;;
7116;SDS011;3600;48.568;7.870;2023-08-31T04:43:54;3.50;;;3.20;;
7116;SDS011;3600;48.568;7.870;2023-08-31T04:46:20;4.80;;;3.97;;
7116;SDS011;3600;48.568;7.870;2023-08-31T04:48:47;2.47;;;2.28;;
7116;SDS011;3600;48.568;7.870;2023-08-31T04:51:33;3.35;;;2.28;;
7116;SDS011;3600;48.568;7.870;2023-08-31T04:54:01;2.47;;;2.25;;
7116;SDS011;3600;48.568;7.870;2023-08-31T04:56:30;3.03;;;2.30;;
7116;SDS011;3600;48.568;7.870;2023-08-31T04:59:01;2.50;;;2.25;;
7116;SDS011;3600;48.568;7.870;2023-08-31T05:01:29;4.60;;;2.67;;
7116;SDS011;3600;48.568;7.870;2023-08-31T05:03:56;2.58;;;2.38;;
7116;SDS011;3600;48.568;7.870;2023-08-31T05:06:23;2.90;;;2.70;;
7116;SDS011;3600;48.568;7.870;2023-08-31T05:08:50;2.88;;;2.33;;
7116;SDS011;3600;48.568;7.870;2023-08-31T05:11:17;2.88;;;2.22;;
7116;SDS011;3600;48.568;7.870;2023-08-31T05:13:44;3.72;;;2.60;;
7116;SDS011;3600;48.568;7.870;2023-08-31T05:16:10;2.70;;;2.50;;
7116;SDS011;3600;48.568;7.870;2023-08-31T05:18:37;6.28;;;2.90;;
7116;SDS011;3600;48.568;7.870;2023-08-31T05:21:06;3.25;;;2.90;;
7116;SDS011;3600;48.568;7.870;2023-08-31T05:23:33;3.42;;;2.88;;
7116;SDS011;3600;48.568;7.870;2023-08-31T05:26:00;2.58;;;2.38;;
7116;SDS011;3600;48.568;7.870;2023-08-31T05:28:27;3.67;;;2.80;;
7116;SDS011;3600;48.568;7.870;2023-08-31T05:30:59;2.70;;;2.50;;
7116;SDS011;3600;48.568;7.870;2023-08-31T05:33:27;3.42;;;2.83;;
7116;SDS011;3600;48.568;7.870;2023-08-31T05:35:55;4.68;;;2.83;;
7116;SDS011;3600;48.568;7.870;2023-08-31T05:38:22;2.90;;;2.53;;
7116;SDS011;3600;48.568;7.870;2023-08-31T05:40:49;5.47;;;2.97;;
7116;SDS011;3600;48.568;7.870;2023-08-31T05:43:16;3.05;;;2.80;;
7116;SDS011;3600;48.568;7.870;2023-08-31T05:45:43;3.47;;;2.72;;
7116;SDS011;3600;48.568;7.870;2023-08-31T05:48:10;2.95;;;2.40;;
7116;SDS011;3600;48.568;7.870;2023-08-31T05:50:37;4.07;;;2.90;;
7116;SDS011;3600;48.568;7.870;2023-08-31T05:53:04;2.88;;;2.58;;
7116;SDS011;3600;48.568;7.870;2023-08-31T05:55:31;2.58;;;2.30;;
7116;SDS011;3600;48.568;7.870;2023-08-31T05:57:59;3.75;;;2.58;;
7116;SDS011;3600;48.568;7.870;2023-08-31T06:00:27;3.17;;;2.75;;
7116;SDS011;3600;48.568;7.870;2023-08-31T06:02:53;4.13;;;2.63;;
7116;SDS011;3600;48.568;7.870;2023-08-31T06:05:20;3.10;;;2.80;;
7116;SDS011;3600;48.568;7.870;2023-08-31T06:07:47;3.38;;;3.00;;
7116;SDS011;3600;48.568;7.870;2023-08-31T06:10:14;3.03;;;2.83;;
7116;SDS011;3600;48.568;7.870;2023-08-31T06:12:41;4.93;;;2.88;;
7116;SDS011;3600;48.568;7.870;2023-08-31T06:15:08;4.53;;;2.72;;
7116;SDS011;3600;48.568;7.870;2023-08-31T06:17:35;3.08;;;2.85;;
7116;SDS011;3600;48.568;7.870;2023-08-31T06:20:02;3.38;;;2.85;;
7116;SDS011;3600;48.568;7.870;2023-08-31T06:22:31;3.15;;;2.85;;
7116;SDS011;3600;48.568;7.870;2023-08-31T06:25:01;6.30;;;3.17;;
7116;SDS011;3600;48.568;7.870;2023-08-31T06:27:31;4.50;;;3.15;;
7116;SDS011;3600;48.568;7.870;2023-08-31T06:29:58;5.22;;;3.00;;
7116;SDS011;3600;48.568;7.870;2023-08-31T06:32:25;3.35;;;3.05;;
7116;SDS011;3600;48.568;7.870;2023-08-31T06:34:53;3.95;;;2.90;;
7116;SDS011;3600;48.568;7.870;2023-08-31T06:37:20;4.05;;;2.95;;
7116;SDS011;3600;48.568;7.870;2023-08-31T06:39:47;4.15;;;2.70;;
7116;SDS011;3600;48.568;7.870;2023-08-31T06:42:14;3.67;;;2.97;;
7116;SDS011;3600;48.568;7.870;2023-08-31T06:44:40;3.45;;;3.15;;
7116;SDS011;3600;48.568;7.870;2023-08-31T06:47:07;3.20;;;2.90;;
7116;SDS011;3600;48.568;7.870;2023-08-31T06:49:34;3.40;;;3.10;;
7116;SDS011;3600;48.568;7.870;2023-08-31T06:52:01;4.53;;;2.90;;
7116;SDS011;3600;48.568;7.870;2023-08-31T06:54:35;6.35;;;3.00;;
7116;SDS011;3600;48.568;7.870;2023-08-31T06:57:02;3.25;;;2.85;;
7116;SDS011;3600;48.568;7.870;2023-08-31T06:59:30;3.70;;;2.60;;
7116;SDS011;3600;48.568;7.870;2023-08-31T07:01:57;4.38;;;2.75;;
7116;SDS011;3600;48.568;7.870;2023-08-31T07:04:23;4.00;;;3.10;;
7116;SDS011;3600;48.568;7.870;2023-08-31T07:06:50;4.70;;;3.13;;
7116;SDS011;3600;48.568;7.870;2023-08-31T07:09:18;3.65;;;2.92;;
7116;SDS011;3600;48.568;7.870;2023-08-31T07:11:45;4.15;;;2.92;;
7116;SDS011;3600;48.568;7.870;2023-08-31T07:14:12;3.10;;;2.70;;
7116;SDS011;3600;48.568;7.870;2023-08-31T07:16:39;5.25;;;3.25;;
7116;SDS011;3600;48.568;7.870;2023-08-31T07:19:06;4.22;;;3.28;;
7116;SDS011;3600;48.568;7.870;2023-08-31T07:21:32;4.63;;;3.22;;
7116;SDS011;3600;48.568;7.870;2023-08-31T07:23:59;4.05;;;3.60;;
7116;SDS011;3600;48.568;7.870;2023-08-31T07:26:27;4.38;;;2.97;;
7116;SDS011;3600;48.568;7.870;2023-08-31T07:28:54;3.30;;;3.00;;
7116;SDS011;3600;48.568;7.870;2023-08-31T07:31:21;4.07;;;3.28;;
7116;SDS011;3600;48.568;7.870;2023-08-31T07:33:48;3.67;;;2.70;;
7116;SDS011;3600;48.568;7.870;2023-08-31T07:36:14;4.10;;;2.63;;
7116;SDS011;3600;48.568;7.870;2023-08-31T07:38:41;5.43;;;2.95;;
7116;SDS011;3600;48.568;7.870;2023-08-31T07:41:08;3.70;;;2.95;;
7116;SDS011;3600;48.568;7.870;2023-08-31T07:43:35;4.22;;;2.78;;
7116;SDS011;3600;48.568;7.870;2023-08-31T07:46:03;5.38;;;2.67;;
7116;SDS011;3600;48.568;7.870;2023-08-31T07:48:30;4.65;;;2.60;;
7116;SDS011;3600;48.568;7.870;2023-08-31T07:50:56;3.22;;;2.33;;
7116;SDS011;3600;48.568;7.870;2023-08-31T07:53:23;2.60;;;2.28;;
7116;SDS011;3600;48.568;7.870;2023-08-31T07:55:55;2.97;;;2.55;;
7116;SDS011;3600;48.568;7.870;2023-08-31T07:58:25;2.90;;;2.33;;
7116;SDS011;3600;48.568;7.870;2023-08-31T08:00:53;2.63;;;2.30;;
7116;SDS011;3600;48.568;7.870;2023-08-31T08:03:24;4.45;;;2.47;;
7116;SDS011;3600;48.568;7.870;2023-08-31T08:05:52;3.75;;;2.58;;
7116;SDS011;3600;48.568;7.870;2023-08-31T08:08:19;4.20;;;2.88;;
7116;SDS011;3600;48.568;7.870;2023-08-31T08:10:46;6.65;;;2.58;;
7116;SDS011;3600;48.568;7.870;2023-08-31T08:13:12;4.35;;;2.40;;
7116;SDS011;3600;48.568;7.870;2023-08-31T08:15:40;4.45;;;2.08;;
7116;SDS011;3600;48.568;7.870;2023-08-31T08:18:06;4.13;;;2.45;;
7116;SDS011;3600;48.568;7.870;2023-08-31T08:20:34;2.97;;;1.73;;
7116;SDS011;3600;48.568;7.870;2023-08-31T08:23:01;2.92;;;1.92;;
7116;SDS011;3600;48.568;7.870;2023-08-31T08:25:27;2.72;;;1.95;;
7116;SDS011;3600;48.568;7.870;2023-08-31T08:27:54;4.00;;;1.90;;
7116;SDS011;3600;48.568;7.870;2023-08-31T08:30:21;4.32;;;2.20;;
7116;SDS011;3600;48.568;7.870;2023-08-31T08:32:48;4.70;;;1.85;;
7116;SDS011;3600;48.568;7.870;2023-08-31T08:35:15;3.40;;;2.53;;
7116;SDS011;3600;48.568;7.870;2023-08-31T08:37:41;3.75;;;2.10;;
7116;SDS011;3600;48.568;7.870;2023-08-31T08:40:09;3.15;;;2.35;;
7116;SDS011;3600;48.568;7.870;2023-08-31T08:42:39;2.85;;;1.90;;
7116;SDS011;3600;48.568;7.870;2023-08-31T08:45:14;4.63;;;2.28;;
7116;SDS011;3600;48.568;7.870;2023-08-31T08:47:44;2.58;;;1.85;;
7116;SDS011;3600;48.568;7.870;2023-08-31T08:50:13;2.20;;;1.90;;
7116;SDS011;3600;48.568;7.870;2023-08-31T08:52:41;4.20;;;1.85;;
7116;SDS011;3600;48.568;7.870;2023-08-31T08:55:08;6.97;;;2.30;;
7116;SDS011;3600;48.568;7.870;2023-08-31T08:57:36;4.47;;;2.05;;
7116;SDS011;3600;48.568;7.870;2023-08-31T09:00:03;2.53;;;2.20;;
7116;SDS011;3600;48.568;7.870;2023-08-31T09:02:31;2.95;;;2.65;;
7116;SDS011;3600;48.568;7.870;2023-08-31T09:04:58;5.38;;;2.10;;
7116;SDS011;3600;48.568;7.870;2023-08-31T09:07:25;1.73;;;1.55;;
7116;SDS011;3600;48.568;7.870;2023-08-31T09:09:56;2.38;;;1.90;;
7116;SDS011;3600;48.568;7.870;2023-08-31T09:12:25;3.47;;;1.90;;
7116;SDS011;3600;48.568;7.870;2023-08-31T09:14:58;3.53;;;1.77;;
7116;SDS011;3600;48.568;7.870;2023-08-31T09:17:38;2.22;;;1.77;;
7116;SDS011;3600;48.568;7.870;2023-08-31T09:20:06;4.10;;;2.17;;
7116;SDS011;3600;48.568;7.870;2023-08-31T09:22:33;3.70;;;2.03;;
7116;SDS011;3600;48.568;7.870;2023-08-31T09:25:00;1.75;;;1.65;;
7116;SDS011;3600;48.568;7.870;2023-08-31T09:27:27;3.80;;;2.05;;
7116;SDS011;3600;48.568;7.870;2023-08-31T09:29:54;1.73;;;1.60;;
7116;SDS011;3600;48.568;7.870;2023-08-31T09:32:22;4.63;;;1.77;;
7116;SDS011;3600;48.568;7.870;2023-08-31T09:34:49;5.43;;;1.77;;
7116;SDS011;3600;48.568;7.870;2023-08-31T09:37:24;3.47;;;2.00;;
7116;SDS011;3600;48.568;7.870;2023-08-31T09:39:51;3.28;;;1.88;;
7116;SDS011;3600;48.568;7.870;2023-08-31T09:42:19;3.53;;;1.90;;
7116;SDS011;3600;48.568;7.870;2023-08-31T09:44:49;3.58;;;1.88;;
7116;SDS011;3600;48.568;7.870;2023-08-31T09:47:16;2.08;;;1.80;;
7116;SDS011;3600;48.568;7.870;2023-08-31T09:49:44;3.63;;;2.15;;
7116;SDS011;3600;48.568;7.870;2023-08-31T09:52:12;3.90;;;1.83;;
7116;SDS011;3600;48.568;7.870;2023-08-31T09:54:40;4.22;;;1.88;;
7116;SDS011;3600;48.568;7.870;2023-08-31T09:57:09;4.88;;;1.92;;
7116;SDS011;3600;48.568;7.870;2023-08-31T09:59:37;3.72;;;1.85;;
7116;SDS011;3600;48.568;7.870;2023-08-31T10:02:05;4.60;;;2.03;;
7116;SDS011;3600;48.568;7.870;2023-08-31T10:04:34;4.18;;;1.80;;
7116;SDS011;3600;48.568;7.870;2023-08-31T10:07:03;4.97;;;2.17;;
7116;SDS011;3600;48.568;7.870;2023-08-31T10:09:32;5.50;;;2.17;;
7116;SDS011;3600;48.568;7.870;2023-08-31T10:11:59;4.05;;;1.80;;
7116;SDS011;3600;48.568;7.870;2023-08-31T10:14:27;3.10;;;1.98;;
7116;SDS011;3600;48.568;7.870;2023-08-31T10:16:55;4.20;;;2.00;;
7116;SDS011;3600;48.568;7.870;2023-08-31T10:19:24;3.60;;;1.80;;
7116;SDS011;3600;48.568;7.870;2023-08-31T10:21:50;2.10;;;1.77;;
7116;SDS011;3600;48.568;7.870;2023-08-31T10:24:17;2.65;;;1.63;;
7116;SDS011;3600;48.568;7.870;2023-08-31T10:26:44;2.67;;;1.70;;
7116;SDS011;3600;48.568;7.870;2023-08-31T10:29:25;3.45;;;1.90;;
7116;SDS011;3600;48.568;7.870;2023-08-31T10:31:54;2.45;;;1.90;;
7116;SDS011;3600;48.568;7.870;2023-08-31T10:34:33;3.42;;;2.08;;
7116;SDS011;3600;48.568;7.870;2023-08-31T10:37:07;3.20;;;1.80;;
7116;SDS011;3600;48.568;7.870;2023-08-31T10:39:46;2.63;;;1.42;;
7116;SDS011;3600;48.568;7.870;2023-08-31T10:42:13;2.35;;;1.63;;
7116;SDS011;3600;48.568;7.870;2023-08-31T10:44:41;3.25;;;1.60;;
7116;SDS011;3600;48.568;7.870;2023-08-31T10:47:09;3.05;;;1.80;;
7116;SDS011;3600;48.568;7.870;2023-08-31T10:49:36;2.90;;;1.77;;
7116;SDS011;3600;48.568;7.870;2023-08-31T10:52:16;2.78;;;1.65;;
7116;SDS011;3600;48.568;7.870;2023-08-31T10:54:51;3.20;;;1.88;;
7116;SDS011;3600;48.568;7.870;2023-08-31T10:57:28;2.30;;;1.75;;
7116;SDS011;3600;48.568;7.870;2023-08-31T10:59:57;2.75;;;1.60;;
7116;SDS011;3600;48.568;7.870;2023-08-31T11:02:28;2.67;;;1.88;;
7116;SDS011;3600;48.568;7.870;2023-08-31T11:05:09;2.60;;;1.65;;
7116;SDS011;3600;48.568;7.870;2023-08-31T11:07:41;3.65;;;2.00;;
7116;SDS011;3600;48.568;7.870;2023-08-31T11:12:41;3.65;;;1.95;;
7116;SDS011;3600;48.568;7.870;2023-08-31T11:15:13;2.53;;;1.70;;
7116;SDS011;3600;48.568;7.870;2023-08-31T11:17:42;3.53;;;1.80;;
7116;SDS011;3600;48.568;7.870;2023-08-31T11:20:13;2.25;;;1.65;;
7116;SDS011;3600;48.568;7.870;2023-08-31T11:22:47;3.42;;;1.73;;
7116;SDS011;3600;48.568;7.870;2023-08-31T11:25:17;2.13;;;1.45;;
7116;SDS011;3600;48.568;7.870;2023-08-31T11:27:54;3.35;;;1.85;;
7116;SDS011;3600;48.568;7.870;2023-08-31T11:30:21;2.60;;;1.75;;
7116;SDS011;3600;48.568;7.870;2023-08-31T11:32:49;4.38;;;1.83;;
7116;SDS011;3600;48.568;7.870;2023-08-31T11:35:21;2.80;;;1.73;;
7116;SDS011;3600;48.568;7.870;2023-08-31T11:37:49;4.55;;;2.10;;
7116;SDS011;3600;48.568;7.870;2023-08-31T11:40:18;3.20;;;1.60;;
7116;SDS011;3600;48.568;7.870;2023-08-31T11:42:45;2.05;;;1.73;;
7116;SDS011;3600;48.568;7.870;2023-08-31T11:45:13;2.42;;;1.67;;
7116;SDS011;3600;48.568;7.870;2023-08-31T11:47:41;4.80;;;1.95;;
7116;SDS011;3600;48.568;7.870;2023-08-31T11:50:10;3.10;;;1.75;;
7116;SDS011;3600;48.568;7.870;2023-08-31T11:52:39;3.33;;;1.77;;
7116;SDS011;3600;48.568;7.870;2023-08-31T11:55:10;6.97;;;2.08;;
7116;SDS011;3600;48.568;7.870;2023-08-31T11:57:38;3.35;;;1.85;;
7116;SDS011;3600;48.568;7.870;2023-08-31T12:00:05;2.55;;;1.77;;
7116;SDS011;3600;48.568;7.870;2023-08-31T12:02:36;5.63;;;2.13;;
7116;SDS011;3600;48.568;7.870;2023-08-31T12:05:03;3.08;;;1.85;;
7116;SDS011;3600;48.568;7.870;2023-08-31T12:07:32;3.42;;;1.80;;
7116;SDS011;3600;48.568;7.870;2023-08-31T12:10:05;3.00;;;1.55;;
7116;SDS011;3600;48.568;7.870;2023-08-31T12:12:32;4.13;;;1.88;;
7116;SDS011;3600;48.568;7.870;2023-08-31T12:15:01;2.08;;;1.63;;
7116;SDS011;3600;48.568;7.870;2023-08-31T12:17:30;3.55;;;2.08;;
7116;SDS011;3600;48.568;7.870;2023-08-31T12:20:03;2.97;;;1.70;;
7116;SDS011;3600;48.568;7.870;2023-08-31T12:22:31;3.65;;;1.73;;
7116;SDS011;3600;48.568;7.870;2023-08-31T12:24:58;3.13;;;1.42;;
7116;SDS011;3600;48.568;7.870;2023-08-31T12:27:25;5.60;;;2.28;;
7116;SDS011;3600;48.568;7.870;2023-08-31T12:29:52;6.63;;;2.17;;
7116;SDS011;3600;48.568;7.870;2023-08-31T12:32:19;3.88;;;1.85;;
7116;SDS011;3600;48.568;7.870;2023-08-31T12:34:49;2.30;;;1.75;;
7116;SDS011;3600;48.568;7.870;2023-08-31T12:37:16;4.00;;;1.88;;
7116;SDS011;3600;48.568;7.870;2023-08-31T12:39:42;4.68;;;1.58;;
7116;SDS011;3600;48.568;7.870;2023-08-31T12:42:12;3.80;;;1.70;;
7116;SDS011;3600;48.568;7.870;2023-08-31T12:44:49;2.22;;;1.80;;
7116;SDS011;3600;48.568;7.870;2023-08-31T12:47:15;5.85;;;2.10;;
7116;SDS011;3600;48.568;7.870;2023-08-31T12:49:42;2.40;;;1.90;;
7116;SDS011;3600;48.568;7.870;2023-08-31T12:52:09;3.63;;;1.75;;
7116;SDS011;3600;48.568;7.870;2023-08-31T12:54:36;2.40;;;1.63;;
7116;SDS011;3600;48.568;7.870;2023-08-31T12:57:03;2.95;;;2.00;;
7116;SDS011;3600;48.568;7.870;2023-08-31T12:59:31;2.63;;;1.50;;
7116;SDS011;3600;48.568;7.870;2023-08-31T13:01:58;4.50;;;2.40;;
7116;SDS011;3600;48.568;7.870;2023-08-31T13:04:25;5.47;;;1.88;;
7116;SDS011;3600;48.568;7.870;2023-08-31T13:06:51;2.92;;;1.80;;
7116;SDS011;3600;48.568;7.870;2023-08-31T13:09:19;5.15;;;2.08;;
7116;SDS011;3600;48.568;7.870;2023-08-31T13:11:45;3.20;;;1.70;;
7116;SDS011;3600;48.568;7.870;2023-08-31T13:14:12;3.33;;;2.10;;
7116;SDS011;3600;48.568;7.870;2023-08-31T13:16:39;3.00;;;1.80;;
7116;SDS011;3600;48.568;7.870;2023-08-31T13:19:07;6.50;;;2.42;;
7116;SDS011;3600;48.568;7.870;2023-08-31T13:21:33;2.45;;;1.70;;
7116;SDS011;3600;48.568;7.870;2023-08-31T13:24:00;5.97;;;2.25;;
7116;SDS011;3600;48.568;7.870;2023-08-31T13:26:27;7.93;;;2.30;;
7116;SDS011;3600;48.568;7.870;2023-08-31T13:28:54;3.10;;;1.95;;
7116;SDS011;3600;48.568;7.870;2023-08-31T13:31:21;3.55;;;1.67;;
7116;SDS011;3600;48.568;7.870;2023-08-31T13:33:48;3.00;;;1.75;;
7116;SDS011;3600;48.568;7.870;2023-08-31T13:36:15;2.13;;;1.70;;
7116;SDS011;3600;48.568;7.870;2023-08-31T13:38:41;6.40;;;1.70;;
7116;SDS011;3600;48.568;7.870;2023-08-31T13:41:08;6.72;;;2.25;;
7116;SDS011;3600;48.568;7.870;2023-08-31T13:43:35;3.92;;;1.95;;
7116;SDS011;3600;48.568;7.870;2023-08-31T13:46:02;2.67;;;1.83;;
7116;SDS011;3600;48.568;7.870;2023-08-31T13:48:30;7.25;;;2.05;;
7116;SDS011;3600;48.568;7.870;2023-08-31T13:50:59;3.67;;;2.20;;
7116;SDS011;3600;48.568;7.870;2023-08-31T13:53:25;4.93;;;2.42;;
7116;SDS011;3600;48.568;7.870;2023-08-31T13:55:53;3.47;;;1.88;;
7116;SDS011;3600;48.568;7.870;2023-08-31T13:58:19;3.92;;;1.95;;
7116;SDS011;3600;48.568;7.870;2023-08-31T14:00:46;6.30;;;2.25;;
7116;SDS011;3600;48.568;7.870;2023-08-31T14:03:13;3.17;;;1.90;;
7116;SDS011;3600;48.568;7.870;2023-08-31T14:05:40;2.85;;;1.63;;
7116;SDS011;3600;48.568;7.870;2023-08-31T14:08:07;2.72;;;2.15;;
7116;SDS011;3600;48.568;7.870;2023-08-31T14:10:38;3.10;;;2.03;;
7116;SDS011;3600;48.568;7.870;2023-08-31T14:13:06;4.18;;;1.92;;
7116;SDS011;3600;48.568;7.870;2023-08-31T14:15:33;6.95;;;1.85;;
7116;SDS011;3600;48.568;7.870;2023-08-31T14:18:00;2.92;;;1.67;;
7116;SDS011;3600;48.568;7.870;2023-08-31T14:20:27;3.22;;;1.70;;
7116;SDS011;3600;48.568;7.870;2023-08-31T14:22:53;5.13;;;2.40;;
7116;SDS011;3600;48.568;7.870;2023-08-31T14:25:20;4.20;;;1.80;;
7116;SDS011;3600;48.568;7.870;2023-08-31T14:27:50;2.55;;;1.75;;
7116;SDS011;3600;48.568;7.870;2023-08-31T14:30:17;4.97;;;2.42;;
7116;SDS011;3600;48.568;7.870;2023-08-31T14:32:43;6.47;;;2.58;;
7116;SDS011;3600;48.568;7.870;2023-08-31T14:35:11;5.63;;;2.22;;
7116;SDS011;3600;48.568;7.870;2023-08-31T14:37:37;4.10;;;2.20;;
7116;SDS011;3600;48.568;7.870;2023-08-31T14:40:04;6.97;;;2.42;;
7116;SDS011;3600;48.568;7.870;2023-08-31T14:42:33;4.22;;;2.47;;
7116;SDS011;3600;48.568;7.870;2023-08-31T14:45:01;2.13;;;1.95;;
7116;SDS011;3600;48.568;7.870;2023-08-31T14:47:29;4.53;;;2.20;;
7116;SDS011;3600;48.568;7.870;2023-08-31T14:49:55;4.50;;;2.38;;
7116;SDS011;3600;48.568;7.870;2023-08-31T14:52:22;2.67;;;2.03;;
7116;SDS011;3600;48.568;7.870;2023-08-31T14:54:49;4.30;;;2.15;;
7116;SDS011;3600;48.568;7.870;2023-08-31T14:57:16;4.88;;;2.08;;
7116;SDS011;3600;48.568;7.870;2023-08-31T14:59:43;5.80;;;2.53;;
7116;SDS011;3600;48.568;7.870;2023-08-31T15:02:10;3.80;;;1.75;;
7116;SDS011;3600;48.568;7.870;2023-08-31T15:04:37;2.63;;;2.25;;
7116;SDS011;3600;48.568;7.870;2023-08-31T15:07:04;2.55;;;1.95;;
7116;SDS011;3600;48.568;7.870;2023-08-31T15:09:31;6.75;;;2.53;;
7116;SDS011;3600;48.568;7.870;2023-08-31T15:11:58;4.05;;;1.88;;
7116;SDS011;3600;48.568;7.870;2023-08-31T15:14:24;4.63;;;2.25;;
7116;SDS011;3600;48.568;7.870;2023-08-31T15:16:51;4.63;;;2.30;;
7116;SDS011;3600;48.568;7.870;2023-08-31T15:19:18;3.25;;;1.85;;
7116;SDS011;3600;48.568;7.870;2023-08-31T15:21:45;1.88;;;1.70;;
7116;SDS011;3600;48.568;7.870;2023-08-31T15:24:12;2.33;;;2.10;;
7116;SDS011;3600;48.568;7.870;2023-08-31T15:26:39;4.60;;;2.58;;
7116;SDS011;3600;48.568;7.870;2023-08-31T15:29:06;3.33;;;1.85;;